Ogden, UT (84414)

12:34 PM MDT on March 28, 2015 (GMT -0600)
KUTNORTH3 | | Change Station
CLOSE
Current Station
Personal Weather Station
Location: North Ogden, UT
Elevation: 4915 ft
Nearby Weather Stations

Elev 4915 ft 41.32 °N, 111.95 °W | Updated 20 seconds ago

Partly Cloudy
Partly Cloudy
67.4 °F
Feels Like 67.4 °F
N
5.0
Wind Variable Wind from SW
Gusts 7.0 mph

Today
High -- | Low -- °F
--% Chance of Precip.
Yesterday
High -- | Low -- °F
Precip. -- in
7:18 AM 7:48 PM
Waxing Gibbous, 64% visible
Pressure 30.03 in
Visibility 10.0 miles
Clouds Clear
Dew Point 33 °F
Humidity 28%
Rainfall 0.00 in
Snow Depth Not available.
UV 7 out of 12
Pollen 8.60 out of 12
Air Quality Not available.
Flu Activity Not available.
METAR KOGD 281753Z 21011KT 10SM CLR 20/M01 A3014 RMK AO2 SLP169 T02001006 10200 20083 50009

More Conditions Fewer Conditions

Pressure 30.03 in
Visibility 10.0 miles
Clouds Clear
Dew Point 33 °F
Humidity 28%
Rainfall 0.00 in
Snow Depth Not available.
UV 7 out of 12
Pollen 8.60 out of 12
Air Quality Not available.
Flu Activity Not available.
METAR KOGD 281753Z 21011KT 10SM CLR 20/M01 A3014 RMK AO2 SLP169 T02001006 10200 20083 50009

More Conditions Fewer Conditions

10-Day Weather Forecast

Almanac

Astronomy

Mar. 28, 2015 Rise Set
Actual Time
Civil Twilight
Nautical Twilight
Astronomical Twilight
Moon
Length of Visible Light
Length of Day
Tomorrow will be .
, % of the Moon is Illuminated

Today's Extremes

State Highs State Lows

Community

WunderPhotos

Upload Photos

1,809,055 photos uploaded!

WunderBlogs® & News

Nearby

Air Quality

  Air Quality AQ Index Pollutant
Not available.

Snow Depth

Station Depth Elevation

Earthquake Activity

City Distance Mag. Time & Date
Minimum magnitude displayed is 2.5.

Coastal Water Temperatures

Place Temperature

Stations

Nearby Weather Stations

Station Location Temp. Windchill Dew Point Humidity Wind Precip. Elev Updated Type